Time;durP1;ratioP1;P1;durP2;ratioP2;P2;SDS_P1;SDS_P2;PMS_P1;PMS_P2;Temp;Humidity;BMP_temperature;BMP_pressure;BME280_temperature;BME280_humidity;BME280_pressure;Samples;Min_cycle;Max_cycle;Signal;HPM_P1;HPM_P2
2023/05/24 00:01:36;;;;;;;16.02;7.57;;;13.10;99.90;;;;;;5073488;28;20509;-55
2023/05/24 00:04:02;;;;;;;16.10;8.05;;;13.20;99.90;;;;;;5073472;28;20246;-54
2023/05/24 00:06:28;;;;;;;18.88;7.30;;;13.20;99.90;;;;;;5073345;28;20161;-55
2023/05/24 00:08:54;;;;;;;15.95;7.32;;;13.10;99.90;;;;;;5073289;28;20551;-55
2023/05/24 00:11:21;;;;;;;14.13;7.38;;;13.10;99.90;;;;;;5073628;28;20522;-54
2023/05/24 00:13:47;;;;;;;18.15;7.88;;;13.10;99.90;;;;;;5073112;28;20168;-54
2023/05/24 00:16:13;;;;;;;18.73;7.57;;;13.10;99.90;;;;;;5073378;28;20176;-54
2023/05/24 00:18:39;;;;;;;16.10;7.95;;;13.10;99.90;;;;;;5073022;28;20707;-55
2023/05/24 00:21:09;;;;;;;14.73;7.82;;;13.10;99.90;;;;;;5073142;28;20189;-54
2023/05/24 00:23:35;;;;;;;17.80;8.30;;;13.00;99.90;;;;;;5073016;28;20177;-54
2023/05/24 00:26:02;;;;;;;19.67;8.57;;;13.00;99.90;;;;;;5054935;28;20198;-54
2023/05/24 00:28:27;;;;;;;18.08;7.78;;;13.10;99.90;;;;;;5072840;28;20179;-54
2023/05/24 00:30:53;;;;;;;13.48;8.02;;;13.10;99.90;;;;;;5072507;28;20303;-54
2023/05/24 00:33:22;;;;;;;17.45;8.32;;;13.10;99.90;;;;;;5054958;28;20180;-54
2023/05/24 00:35:48;;;;;;;18.55;8.75;;;13.10;99.90;;;;;;5072833;28;20180;-54
2023/05/24 00:38:13;;;;;;;18.60;8.35;;;13.10;99.90;;;;;;5072589;28;20599;-54
2023/05/24 00:40:39;;;;;;;22.95;8.45;;;13.00;99.90;;;;;;5054437;28;20224;-54
2023/05/24 00:43:05;;;;;;;17.35;8.68;;;13.00;99.90;;;;;;5072633;28;20164;-54
2023/05/24 00:45:30;;;;;;;19.08;8.48;;;13.00;99.90;;;;;;5072693;28;20175;-54
2023/05/24 00:47:56;;;;;;;16.58;8.05;;;13.00;99.90;;;;;;5072411;28;20173;-55
2023/05/24 00:50:22;;;;;;;15.63;8.45;;;12.40;99.90;;;;;;5072555;28;20180;-54
2023/05/24 00:52:50;;;;;;;16.45;9.60;;;12.80;99.90;;;;;;5072449;28;20179;-54
2023/05/24 00:55:16;;;;;;;17.27;9.23;;;12.70;99.90;;;;;;5072357;28;20195;-54
2023/05/24 00:57:42;;;;;;;14.95;8.63;;;12.60;99.90;;;;;;5072324;28;20177;-54
2023/05/24 01:00:08;;;;;;;18.45;9.40;;;12.60;99.90;;;;;;5072238;28;20643;-54
2023/05/24 01:02:34;;;;;;;17.65;8.20;;;12.60;99.90;;;;;;5072165;28;20640;-54
2023/05/24 01:04:59;;;;;;;19.95;8.15;;;12.60;99.90;;;;;;5072188;28;20173;-54
2023/05/24 01:07:53;;;;;;;17.02;8.38;;;12.60;99.90;;;;;;5091490;28;20754;-54
2023/05/24 01:10:38;;;;;;;18.42;7.53;;;12.70;99.90;;;;;;5092441;28;20214;-55
2023/05/24 01:13:25;;;;;;;15.95;7.38;;;12.70;99.90;;;;;;5091922;28;20171;-54
2023/05/24 01:15:55;;;;;;;15.57;6.95;;;12.80;99.90;;;;;;5092071;28;20175;-54
2023/05/24 01:18:37;;;;;;;17.52;6.30;;;12.80;99.90;;;;;;5091963;28;20168;-54
2023/05/24 01:21:13;;;;;;;16.83;7.40;;;12.80;99.90;;;;;;5092070;28;20203;-54
2023/05/24 01:23:59;;;;;;;16.33;7.68;;;12.80;99.90;;;;;;5087172;28;20175;-54
2023/05/24 01:26:25;;;;;;;14.50;7.32;;;12.80;99.90;;;;;;5071415;28;20181;-55
2023/05/24 01:28:52;;;;;;;15.50;6.70;;;12.70;99.90;;;;;;5071649;28;20675;-54
2023/05/24 01:31:19;;;;;;;18.23;6.88;;;12.60;99.90;;;;;;5071607;28;20179;-54
2023/05/24 01:33:44;;;;;;;21.63;7.63;;;12.60;99.90;;;;;;5071620;28;20176;-54
2023/05/24 01:36:10;;;;;;;25.13;6.10;;;12.50;99.90;;;;;;5053419;28;20183;-55
2023/05/24 01:38:37;;;;;;;16.87;6.43;;;12.50;99.90;;;;;;5071423;28;20330;-54
2023/05/24 01:41:22;;;;;;;19.08;7.00;;;12.50;99.90;;;;;;5071189;28;20710;-55
2023/05/24 01:43:53;;;;;;;15.55;6.90;;;12.50;99.90;;;;;;5070606;28;20249;-54
2023/05/24 01:46:36;;;;;;;15.18;6.55;;;12.40;99.90;;;;;;5071566;28;20621;-55
2023/05/24 01:49:39;;;;;;;15.30;6.38;;;12.30;99.90;;;;;;5071364;28;20257;-54
2023/05/24 01:52:11;;;;;;;16.08;6.70;;;12.20;99.90;;;;;;5071423;28;20198;-54
2023/05/24 01:54:42;;;;;;;15.90;6.83;;;12.10;99.90;;;;;;5071153;28;20230;-54
2023/05/24 01:57:09;;;;;;;13.48;6.75;;;12.10;99.90;;;;;;5071163;28;20172;-54
2023/05/24 01:59:37;;;;;;;17.23;5.70;;;12.10;99.90;;;;;;5071036;28;20751;-54
2023/05/24 02:02:03;;;;;;;15.00;5.57;;;12.10;99.90;;;;;;5071079;28;20169;-54
2023/05/24 02:04:29;;;;;;;14.27;5.13;;;12.00;99.90;;;;;;5070906;28;20174;-55
2023/05/24 02:06:54;;;;;;;15.13;5.30;;;13.70;99.90;;;;;;5071315;28;20568;-54
2023/05/24 02:09:20;;;;;;;18.13;5.60;;;12.10;99.90;;;;;;5071115;28;20176;-54
2023/05/24 02:11:45;;;;;;;16.40;5.50;;;12.10;99.90;;;;;;5071099;28;20218;-55
2023/05/24 02:14:12;;;;;;;12.27;4.87;;;12.00;99.90;;;;;;5070977;28;20578;-55
2023/05/24 02:16:41;;;;;;;14.53;5.20;;;12.10;99.90;;;;;;5070915;28;20177;-54
2023/05/24 02:19:08;;;;;;;19.63;5.20;;;12.00;99.90;;;;;;5071058;28;20251;-55
2023/05/24 02:21:33;;;;;;;17.30;4.77;;;12.00;99.90;;;;;;5070958;28;20172;-54
2023/05/24 02:23:59;;;;;;;16.97;5.23;;;12.10;99.90;;;;;;5071026;28;20180;-54
2023/05/24 02:26:25;;;;;;;15.05;4.65;;;12.00;99.90;;;;;;5070864;28;20629;-54
2023/05/24 02:28:50;;;;;;;13.43;4.90;;;11.90;99.90;;;;;;5052973;28;20176;-59
2023/05/24 02:31:16;;;;;;;11.83;4.70;;;11.90;99.90;;;;;;5070658;28;20321;-54
2023/05/24 02:33:42;;;;;;;12.17;4.93;;;11.80;99.90;;;;;;5069421;28;20176;-54
2023/05/24 02:36:08;;;;;;;16.90;4.60;;;11.70;99.90;;;;;;5070803;28;20606;-54
2023/05/24 02:38:34;;;;;;;19.58;5.43;;;11.60;99.90;;;;;;5070637;28;20287;-54
2023/05/24 02:40:59;;;;;;;9.13;4.30;;;11.60;99.90;;;;;;5070526;28;20241;-54
2023/05/24 02:43:25;;;;;;;16.70;4.67;;;11.60;99.90;;;;;;5070630;28;20172;-54
2023/05/24 02:45:50;;;;;;;13.73;4.80;;;11.50;99.90;;;;;;5070598;28;20252;-54
2023/05/24 02:48:16;;;;;;;14.07;4.20;;;11.50;99.90;;;;;;5070706;28;20518;-54
2023/05/24 02:50:42;;;;;;;15.63;4.90;;;11.40;99.90;;;;;;5070746;28;20177;-54
2023/05/24 02:53:07;;;;;;;13.43;4.40;;;11.40;99.90;;;;;;5070599;28;20590;-54
2023/05/24 02:55:33;;;;;;;11.67;3.80;;;11.30;99.90;;;;;;5074116;28;20203;-55
2023/05/24 02:57:58;;;;;;;11.60;4.37;;;11.30;99.90;;;;;;5074579;28;20529;-54
2023/05/24 03:00:24;;;;;;;12.33;4.53;;;11.30;99.90;;;;;;5080866;28;20229;-55
2023/05/24 03:02:51;;;;;;;15.23;4.37;;;11.30;99.90;;;;;;5094846;28;20623;-54
2023/05/24 03:05:17;;;;;;;13.40;4.17;;;11.40;99.90;;;;;;5094730;28;20164;-54
2023/05/24 03:07:43;;;;;;;17.07;4.80;;;11.30;99.90;;;;;;5094616;28;20206;-54
2023/05/24 03:10:09;;;;;;;13.17;4.40;;;11.30;99.90;;;;;;5094608;28;20164;-54
2023/05/24 03:12:34;;;;;;;11.07;3.93;;;11.40;99.90;;;;;;5094653;28;20176;-54
2023/05/24 03:15:00;;;;;;;17.17;4.30;;;11.40;99.90;;;;;;5094456;28;20176;-54
2023/05/24 03:17:26;;;;;;;12.63;3.67;;;11.40;99.90;;;;;;5094584;28;20174;-54
2023/05/24 03:19:51;;;;;;;14.60;4.10;;;11.40;99.90;;;;;;5094416;28;20207;-54
2023/05/24 03:22:18;;;;;;;16.23;4.47;;;11.40;99.90;;;;;;5094519;28;20174;-54
2023/05/24 03:24:45;;;;;;;19.20;4.03;;;11.40;99.90;;;;;;5094368;28;20182;-54
2023/05/24 03:27:11;;;;;;;9.63;3.53;;;;;;;;;;5094377;28;20241;-54
2023/05/24 03:29:37;;;;;;;11.33;3.90;;;11.40;99.90;;;;;;5094164;28;20176;-54
2023/05/24 03:32:02;;;;;;;10.77;4.20;;;11.40;99.90;;;;;;5075942;28;20218;-54
2023/05/24 03:34:29;;;;;;;13.07;4.00;;;11.40;99.90;;;;;;5094203;28;20175;-54
2023/05/24 03:36:54;;;;;;;12.77;3.77;;;11.40;99.90;;;;;;5094044;28;20178;-54
2023/05/24 03:39:20;;;;;;;10.30;3.47;;;11.50;99.90;;;;;;5093916;28;20199;-54
2023/05/24 03:41:45;;;;;;;12.57;3.53;;;11.30;99.90;;;;;;5093870;28;20691;-54
2023/05/24 03:44:12;;;;;;;12.50;3.70;;;11.20;99.90;;;;;;5093865;28;20176;-54
2023/05/24 03:46:39;;;;;;;14.20;4.07;;;11.30;99.90;;;;;;5093867;28;20226;-54
2023/05/24 03:49:06;;;;;;;13.47;4.17;;;11.20;99.90;;;;;;5093918;28;20172;-54
2023/05/24 03:51:31;;;;;;;14.87;4.17;;;11.30;99.90;;;;;;5093839;28;20639;-54
2023/05/24 03:53:57;;;;;;;8.83;3.30;;;11.30;99.90;;;;;;5093812;28;20164;-54
2023/05/24 03:56:25;;;;;;;13.50;3.83;;;11.20;99.90;;;;;;5075533;28;20198;-54
2023/05/24 03:58:51;;;;;;;15.90;3.63;;;;;;;;;;5075544;28;20691;-54
2023/05/24 04:01:18;;;;;;;12.97;3.97;;;11.00;99.90;;;;;;5093756;28;20636;-54
2023/05/24 04:03:44;;;;;;;14.27;3.87;;;11.10;99.90;;;;;;5093710;28;20179;-54
2023/05/24 04:06:13;;;;;;;12.30;3.60;;;11.10;99.90;;;;;;5092852;28;20259;-55
2023/05/24 04:08:39;;;;;;;15.53;3.97;;;11.10;99.90;;;;;;5093552;28;20171;-54
2023/05/24 04:11:04;;;;;;;9.27;3.63;;;11.10;99.90;;;;;;5093373;28;20172;-55
2023/05/24 04:13:30;;;;;;;9.07;3.43;;;11.00;99.90;;;;;;5093320;28;20715;-55
2023/05/24 04:15:55;;;;;;;11.47;3.83;;;11.00;99.90;;;;;;5093392;28;20164;-55
2023/05/24 04:18:21;;;;;;;19.97;4.10;;;11.00;99.90;;;;;;5093321;28;20246;-55
2023/05/24 04:20:47;;;;;;;11.53;3.53;;;11.00;99.90;;;;;;5093317;28;20211;-54
2023/05/24 04:23:12;;;;;;;14.70;3.90;;;10.90;99.90;;;;;;5093119;28;20513;-54
2023/05/24 04:25:38;;;;;;;10.70;3.60;;;11.00;99.90;;;;;;5075090;28;20172;-55
2023/05/24 04:28:04;;;;;;;11.90;3.23;;;10.90;99.90;;;;;;5093092;28;20172;-55
2023/05/24 04:30:30;;;;;;;10.37;3.67;;;10.70;99.90;;;;;;5093111;28;20166;-55
2023/05/24 04:32:56;;;;;;;9.73;3.43;;;10.80;99.90;;;;;;5092932;28;20164;-55
2023/05/24 04:35:24;;;;;;;14.83;3.70;;;10.80;99.90;;;;;;5092964;28;20183;-55
2023/05/24 04:37:50;;;;;;;14.73;4.13;;;10.70;99.90;;;;;;5093046;28;20180;-55
2023/05/24 04:40:16;;;;;;;13.07;3.93;;;10.80;99.90;;;;;;5092468;28;20207;-55
2023/05/24 04:42:42;;;;;;;17.23;3.97;;;10.80;99.90;;;;;;5078821;28;20301;-55
2023/05/24 04:45:08;;;;;;;14.00;3.60;;;10.70;99.90;;;;;;5072325;28;20181;-55
2023/05/24 04:47:33;;;;;;;16.70;3.83;;;10.60;99.90;;;;;;5072562;28;20169;-55
2023/05/24 04:49:59;;;;;;;14.70;3.77;;;;;;;;;;5072560;28;20707;-55
2023/05/24 04:52:25;;;;;;;22.23;4.03;;;10.90;99.90;;;;;;5072396;28;20173;-56
2023/05/24 04:54:51;;;;;;;11.93;3.53;;;10.90;99.90;;;;;;5072328;28;20187;-55
2023/05/24 04:57:17;;;;;;;12.63;3.40;;;10.90;99.90;;;;;;5072526;28;20200;-55
2023/05/24 04:59:43;;;;;;;13.00;3.63;;;9.80;99.90;;;;;;5055039;28;20305;-54
2023/05/24 05:02:08;;;;;;;19.13;3.73;;;11.00;99.90;;;;;;5092451;28;20176;-55
2023/05/24 05:04:34;;;;;;;15.10;3.53;;;11.10;99.90;;;;;;5092431;28;20247;-56
2023/05/24 05:06:59;;;;;;;12.30;3.33;;;11.00;99.90;;;;;;5092370;28;20176;-56
2023/05/24 05:09:27;;;;;;;12.73;3.67;;;;;;;;;;5092361;28;20558;-56
2023/05/24 05:11:52;;;;;;;14.43;3.67;;;10.30;99.90;;;;;;5092174;28;20175;-56
2023/05/24 05:14:18;;;;;;;11.90;3.53;;;10.90;99.90;;;;;;5092384;28;20241;-56
2023/05/24 05:16:45;;;;;;;14.20;4.23;;;10.90;99.90;;;;;;5092051;28;20583;-56
2023/05/24 05:19:10;;;;;;;11.63;3.77;;;11.00;99.90;;;;;;5091235;28;20726;-56
2023/05/24 05:21:38;;;;;;;15.93;4.10;;;;;;;;;;5092187;28;20184;-56
2023/05/24 05:24:04;;;;;;;15.53;3.43;;;11.10;99.90;;;;;;5092028;28;20164;-55
2023/05/24 05:26:30;;;;;;;15.80;4.13;;;11.20;99.90;;;;;;5092033;28;20489;-55
2023/05/24 05:28:56;;;;;;;18.03;3.80;;;11.30;99.90;;;;;;5091939;28;20646;-55
2023/05/24 05:31:22;;;;;;;16.23;3.80;;;11.10;99.90;;;;;;5092066;28;20255;-55
2023/05/24 05:33:49;;;;;;;9.97;3.83;;;;;;;;;;5091660;28;20712;-55
2023/05/24 05:36:15;;;;;;;13.67;3.63;;;11.20;99.90;;;;;;5091817;28;20172;-55
2023/05/24 05:38:40;;;;;;;13.70;4.10;;;11.40;99.90;;;;;;5091743;28;20200;-55
2023/05/24 05:41:06;;;;;;;16.53;4.70;;;11.60;99.90;;;;;;5091631;28;20308;-55
2023/05/24 05:43:32;;;;;;;16.93;4.23;;;11.60;99.90;;;;;;5091563;28;20164;-55
2023/05/24 05:45:59;;;;;;;11.17;3.73;;;11.60;99.90;;;;;;5091794;28;20178;-55
2023/05/24 05:48:25;;;;;;;19.30;4.10;;;11.70;99.90;;;;;;5091605;28;20218;-55
2023/05/24 05:50:50;;;;;;;18.60;4.27;;;12.10;99.90;;;;;;5091521;28;20565;-55
2023/05/24 05:53:16;;;;;;;20.03;4.00;;;11.90;99.90;;;;;;5091475;28;20640;-55
2023/05/24 05:55:41;;;;;;;18.60;4.57;;;12.00;99.90;;;;;;5091517;28;20167;-55
2023/05/24 05:58:07;;;;;;;11.83;3.73;;;;;;;;;;5091444;28;20170;-55
2023/05/24 06:00:33;;;;;;;15.10;4.40;;;12.30;99.90;;;;;;5083392;28;20257;-55
2023/05/24 06:02:58;;;;;;;16.90;4.60;;;12.40;99.90;;;;;;5071109;28;20164;-56
2023/05/24 06:05:24;;;;;;;18.77;4.50;;;12.40;99.90;;;;;;5071176;28;20541;-55
2023/05/24 06:07:50;;;;;;;15.18;4.32;;;12.60;99.90;;;;;;5071081;28;20184;-56
2023/05/24 06:10:16;;;;;;;17.60;4.70;;;;;;;;;;5071248;28;20594;-55
2023/05/24 06:12:41;;;;;;;21.55;4.63;;;12.80;99.90;;;;;;5053027;28;20191;-54
2023/05/24 06:15:08;;;;;;;12.98;4.22;;;12.80;99.90;;;;;;5071153;28;20173;-54
2023/05/24 06:17:34;;;;;;;14.18;3.72;;;13.00;1.00;;;;;;5070855;28;20251;-54
2023/05/24 06:20:00;;;;;;;17.02;3.50;;;13.10;1.00;;;;;;5070780;28;20673;-54
2023/05/24 06:22:29;;;;;;;15.52;4.13;;;;;;;;;;5070806;28;20267;-54
2023/05/24 06:24:55;;;;;;;15.75;3.63;;;13.20;99.90;;;;;;5071002;28;20176;-54
2023/05/24 06:27:20;;;;;;;13.15;3.92;;;13.20;15.40;;;;;;5070691;28;20636;-54
2023/05/24 06:29:46;;;;;;;18.80;4.40;;;13.00;99.90;;;;;;5070478;28;20180;-54
2023/05/24 06:32:11;;;;;;;20.60;3.55;;;13.40;99.90;;;;;;5052881;28;20218;-55
2023/05/24 06:34:37;;;;;;;11.40;4.03;;;13.50;99.90;;;;;;5070658;28;20184;-54
2023/05/24 06:37:03;;;;;;;18.80;4.25;;;13.60;1.00;;;;;;5070574;28;20180;-55
2023/05/24 06:39:28;;;;;;;18.45;3.95;;;13.70;1.00;;;;;;5070673;28;20669;-54
2023/05/24 06:41:54;;;;;;;15.25;4.00;;;13.80;99.90;;;;;;5070555;28;20228;-54
2023/05/24 06:44:22;;;;;;;17.95;3.70;;;13.80;95.00;;;;;;5070807;28;20184;-54
2023/05/24 06:46:47;;;;;;;16.65;3.65;;;13.90;1.00;;;;;;5070612;28;20176;-54
2023/05/24 06:49:13;;;;;;;12.18;3.80;;;13.70;99.90;;;;;;5070572;28;20192;-54
2023/05/24 06:51:39;;;;;;;15.25;3.80;;;14.00;99.90;;;;;;5070465;28;20183;-54
2023/05/24 06:54:05;;;;;;;11.10;3.90;;;14.00;99.90;;;;;;5070779;28;20176;-55
2023/05/24 06:56:31;;;;;;;14.23;3.60;;;14.10;1.00;;;;;;5070477;28;20175;-55
2023/05/24 06:58:58;;;;;;;14.98;3.78;;;14.10;99.90;;;;;;5070719;28;20227;-54
2023/05/24 07:01:23;;;;;;;18.42;3.60;;;14.10;99.90;;;;;;5085082;28;20188;-54
2023/05/24 07:03:49;;;;;;;13.02;3.55;;;14.30;99.90;;;;;;5090453;28;20178;-54
2023/05/24 07:06:15;;;;;;;15.13;4.00;;;14.30;1.00;;;;;;5090581;28;20204;-54
2023/05/24 07:08:41;;;;;;;12.10;3.85;;;14.50;1.00;;;;;;5090857;28;20265;-55
2023/05/24 07:11:08;;;;;;;11.98;3.92;;;14.50;1.00;;;;;;5090663;28;20664;-54
2023/05/24 07:13:34;;;;;;;15.88;3.78;;;14.40;76.10;;;;;;5090619;28;20206;-54
2023/05/24 07:16:00;;;;;;;17.92;4.30;;;14.50;97.10;;;;;;5090877;28;20226;-54
2023/05/24 07:18:25;;;;;;;13.82;4.10;;;14.60;99.90;;;;;;5090349;28;20640;-54
2023/05/24 07:20:51;;;;;;;19.98;3.42;;;14.60;54.30;;;;;;5090195;28;20255;-54
2023/05/24 07:23:17;;;;;;;18.95;4.05;;;14.70;1.00;;;;;;5090464;28;20172;-54
2023/05/24 07:25:42;;;;;;;14.48;4.00;;;14.70;1.00;;;;;;5090499;28;20656;-54
2023/05/24 07:28:08;;;;;;;17.77;4.93;;;14.70;1.00;;;;;;5090373;28;20730;-53
2023/05/24 07:30:34;;;;;;;17.83;4.75;;;15.00;1.00;;;;;;5090150;28;20183;-53
2023/05/24 07:33:00;;;;;;;24.42;4.32;;;14.90;99.90;;;;;;5090152;28;20198;-53
2023/05/24 07:35:28;;;;;;;21.00;4.97;;;15.10;99.90;;;;;;5090053;28;20180;-53
2023/05/24 07:37:53;;;;;;;17.35;4.38;;;15.10;99.90;;;;;;5090079;28;20221;-53
2023/05/24 07:40:19;;;;;;;21.20;4.45;;;15.20;99.90;;;;;;5089848;28;20236;-53
2023/05/24 07:42:46;;;;;;;16.70;4.45;;;15.30;99.90;;;;;;5093264;28;20628;-54
2023/05/24 07:45:12;;;;;;;23.38;4.78;;;15.40;99.90;;;;;;5093624;28;20267;-53
2023/05/24 07:47:38;;;;;;;15.80;4.10;;;15.50;1.00;;;;;;5093652;28;20202;-54
2023/05/24 07:50:04;;;;;;;17.08;4.20;;;15.70;1.00;;;;;;5093449;28;20199;-54
2023/05/24 07:52:30;;;;;;;17.08;4.63;;;15.70;1.00;;;;;;5093448;28;20172;-53
2023/05/24 07:54:55;;;;;;;16.40;4.60;;;15.80;1.00;;;;;;5093569;28;20175;-54
2023/05/24 07:57:21;;;;;;;18.80;3.95;;;15.80;1.00;;;;;;5093581;28;20172;-53
2023/05/24 07:59:47;;;;;;;26.02;4.88;;;15.90;1.00;;;;;;5091787;28;20242;-54
2023/05/24 08:02:14;;;;;;;18.23;4.72;;;16.00;1.00;;;;;;5072990;28;20276;-53
2023/05/24 08:04:40;;;;;;;18.90;4.25;;;16.10;1.00;;;;;;5073016;28;20238;-54
2023/05/24 08:07:06;;;;;;;15.70;3.90;;;16.10;99.90;;;;;;5073293;28;20173;-53
2023/05/24 08:09:37;;;;;;;17.50;4.65;;;16.10;1.00;;;;;;5073032;28;20169;-54
2023/05/24 08:12:06;;;;;;;26.05;4.28;;;16.00;1.00;;;;;;5073087;28;20648;-54
2023/05/24 08:14:32;;;;;;;19.38;4.20;;;16.10;99.90;;;;;;5072993;28;20279;-53
2023/05/24 08:16:59;;;;;;;19.50;4.57;;;16.20;1.00;;;;;;5072922;28;20229;-55
2023/05/24 08:19:26;;;;;;;19.17;4.60;;;16.40;93.20;;;;;;5072915;28;20224;-54
2023/05/24 08:21:52;;;;;;;16.70;4.40;;;16.70;1.00;;;;;;5054792;28;20172;-53
2023/05/24 08:24:19;;;;;;;13.95;4.40;;;16.90;99.90;;;;;;5072817;28;20188;-53
2023/05/24 08:26:45;;;;;;;13.85;4.53;;;16.80;99.90;;;;;;5072744;28;20173;-54
2023/05/24 08:29:11;;;;;;;12.93;4.45;;;16.80;1.00;;;;;;5072879;28;20190;-53
2023/05/24 08:31:37;;;;;;;11.25;4.13;;;17.00;99.90;;;;;;5072702;28;20645;-53
2023/05/24 08:34:03;;;;;;;13.30;4.03;;;17.30;1.00;;;;;;5072705;28;20195;-53
2023/05/24 08:36:28;;;;;;;16.95;4.68;;;17.80;1.00;;;;;;5073209;28;20169;-54
2023/05/24 08:38:54;;;;;;;14.48;3.75;;;18.10;1.00;;;;;;5072554;28;20680;-54
2023/05/24 08:41:20;;;;;;;16.70;4.13;;;18.50;99.90;;;;;;5072500;28;20247;-54
2023/05/24 08:43:46;;;;;;;15.20;4.25;;;18.80;1.00;;;;;;5072541;28;20199;-54
2023/05/24 08:46:16;;;;;;;14.88;3.80;;;19.30;1.00;;;;;;5072379;28;20172;-55
2023/05/24 08:48:45;;;;;;;11.05;3.92;;;19.30;2.90;;;;;;5072450;28;20698;-55
2023/05/24 08:51:13;;;;;;;13.02;4.10;;;19.50;1.00;;;;;;5072306;28;20250;-55
2023/05/24 08:53:40;;;;;;;14.93;4.32;;;19.70;98.80;;;;;;5071936;28;20169;-55
2023/05/24 08:56:09;;;;;;;12.55;4.18;;;19.80;1.00;;;;;;5071990;28;20188;-54
2023/05/24 08:58:36;;;;;;;14.10;3.78;;;19.80;1.00;;;;;;5072080;28;20176;-55
2023/05/24 09:01:02;;;;;;;17.83;4.82;;;20.00;1.00;;;;;;5083943;28;20715;-55
2023/05/24 09:03:30;;;;;;;14.00;4.90;;;19.90;1.00;;;;;;5092280;28;20624;-55
2023/05/24 09:05:55;;;;;;;12.95;4.03;;;20.50;1.00;;;;;;5092180;28;20171;-55
2023/05/24 09:08:22;;;;;;;15.13;4.22;;;20.30;1.00;;;;;;5092366;28;20229;-55
2023/05/24 09:10:47;;;;;;;16.42;4.60;;;20.40;1.00;;;;;;5089110;28;20180;-55
2023/05/24 09:13:14;;;;;;;15.95;4.13;;;20.70;1.00;;;;;;5071848;28;20176;-56
2023/05/24 09:15:40;;;;;;;12.43;3.75;;;20.70;1.00;;;;;;5071836;28;20169;-55
2023/05/24 09:18:05;;;;;;;12.57;4.18;;;20.80;1.00;;;;;;5071808;28;20245;-55
2023/05/24 09:20:31;;;;;;;17.83;4.55;;;21.20;1.00;;;;;;5071745;28;20255;-55
2023/05/24 09:22:58;;;;;;;11.18;3.83;;;21.40;1.00;;;;;;5053903;28;20165;-55
2023/05/24 09:25:28;;;;;;;16.15;4.03;;;21.10;1.00;;;;;;5071654;28;20467;-54
2023/05/24 09:27:55;;;;;;;18.00;4.45;;;21.30;1.00;;;;;;5071701;28;20561;-55
2023/05/24 09:30:20;;;;;;;13.20;4.03;;;21.40;1.00;;;;;;5071678;28;20251;-54
2023/05/24 09:33:00;;;;;;;13.13;4.03;;;21.30;1.00;;;;;;5071656;28;20704;-55
2023/05/24 09:35:30;;;;;;;11.93;3.67;;;21.60;1.00;;;;;;5071538;28;20169;-57
2023/05/24 09:37:59;;;;;;;14.18;4.28;;;22.00;99.90;;;;;;5071282;28;20180;-55
2023/05/24 09:40:25;;;;;;;13.20;4.43;;;22.00;99.90;;;;;;5071082;28;20254;-55
2023/05/24 09:43:08;;;;;;;20.92;3.92;;;22.00;1.00;;;;;;5071298;28;20180;-55
2023/05/24 09:45:45;;;;;;;16.10;4.13;;;21.90;1.00;;;;;;5071273;28;20195;-55
2023/05/24 09:48:18;;;;;;;16.45;4.55;;;22.10;1.00;;;;;;5071171;28;20225;-55
2023/05/24 09:50:46;;;;;;;12.80;4.18;;;21.80;1.00;;;;;;5071177;28;20172;-55
2023/05/24 09:53:12;;;;;;;12.48;3.88;;;22.10;1.00;;;;;;5071011;28;20605;-56
2023/05/24 09:55:37;;;;;;;13.93;4.10;;;22.30;1.00;;;;;;5071078;28;20169;-55
2023/05/24 09:58:07;;;;;;;13.70;4.07;;;22.30;1.00;;;;;;5070965;28;20168;-55
2023/05/24 10:00:42;;;;;;;18.55;4.40;;;22.70;1.00;;;;;;5070842;28;20215;-55
2023/05/24 10:03:10;;;;;;;18.92;4.28;;;23.00;1.00;;;;;;5070564;28;20171;-56
2023/05/24 10:05:37;;;;;;;17.13;4.28;;;22.80;1.00;;;;;;5052715;28;20180;-56
2023/05/24 10:08:08;;;;;;;31.98;6.18;;;22.80;1.00;;;;;;5070820;28;20230;-56
2023/05/24 10:10:34;;;;;;;18.80;4.30;;;23.20;99.90;;;;;;5070979;28;20169;-55
2023/05/24 10:13:01;;;;;;;19.60;4.43;;;23.40;1.00;;;;;;5070784;28;20187;-56
2023/05/24 10:15:27;;;;;;;22.13;5.03;;;23.60;1.00;;;;;;5070740;28;20165;-55
2023/05/24 10:17:54;;;;;;;18.70;4.20;;;23.40;99.90;;;;;;5070628;28;20169;-55
2023/05/24 10:20:21;;;;;;;36.25;6.50;;;22.90;99.90;;;;;;5070578;28;20224;-56
2023/05/24 10:22:54;;;;;;;15.88;4.47;;;23.00;22.40;;;;;;5070699;28;20169;-55
2023/05/24 10:25:24;;;;;;;20.77;4.35;;;23.40;99.90;;;;;;5070788;28;20180;-55
2023/05/24 10:27:52;;;;;;;15.43;4.75;;;23.40;99.90;;;;;;5070579;28;20168;-55
2023/05/24 10:30:21;;;;;;;18.75;4.65;;;23.50;99.90;;;;;;5052674;28;20218;-56
2023/05/24 10:32:48;;;;;;;15.25;4.03;;;23.20;99.90;;;;;;5070638;28;20652;-56
2023/05/24 10:35:17;;;;;;;17.67;4.20;;;23.40;99.90;;;;;;5070626;28;20527;-56
2023/05/24 10:37:45;;;;;;;12.75;3.85;;;23.70;99.90;;;;;;5070687;28;20176;-56
2023/05/24 10:40:19;;;;;;;12.05;4.18;;;23.90;99.90;;;;;;5070468;28;20253;-57
2023/05/24 10:42:45;;;;;;;14.13;4.60;;;24.20;99.90;;;;;;5070493;28;20172;-56
2023/05/24 10:45:23;;;;;;;14.07;4.45;;;24.10;99.90;;;;;;5070522;28;20267;-56
2023/05/24 10:47:50;;;;;;;11.05;4.38;;;23.70;99.90;;;;;;5070700;28;20180;-56
2023/05/24 10:50:17;;;;;;;12.23;4.47;;;23.90;99.90;;;;;;5070445;28;20260;-56
2023/05/24 10:52:43;;;;;;;15.57;4.28;;;24.20;99.90;;;;;;5070741;28;20176;-57
2023/05/24 10:55:10;;;;;;;15.05;4.13;;;24.10;99.90;;;;;;5070513;28;20683;-56
2023/05/24 10:57:38;;;;;;;11.00;3.90;;;24.00;99.90;;;;;;5071111;28;20260;-56
2023/05/24 11:00:26;;;;;;;13.52;5.03;;;24.00;99.90;;;;;;5070744;28;20298;-56
2023/05/24 11:03:00;;;;;;;12.63;3.80;;;23.20;99.90;;;;;;5070656;28;20168;-55
2023/05/24 11:05:32;;;;;;;13.35;3.90;;;23.50;84.40;;;;;;5070465;28;20176;-56
2023/05/24 11:08:00;;;;;;;9.95;4.45;;;23.50;99.90;;;;;;5052465;28;20198;-55
2023/05/24 11:10:31;;;;;;;15.88;4.38;;;23.80;99.90;;;;;;5070558;28;20195;-56
2023/05/24 11:13:01;;;;;;;12.63;3.80;;;23.80;99.90;;;;;;5070406;28;20173;-55
2023/05/24 11:15:28;;;;;;;12.05;3.90;;;24.30;99.90;;;;;;5071891;28;20181;-55
2023/05/24 11:18:11;;;;;;;9.63;3.88;;;24.90;99.90;;;;;;5056273;28;20165;-55
2023/05/24 11:20:37;;;;;;;14.18;4.03;;;24.80;1.00;;;;;;5073987;28;20226;-55
2023/05/24 11:23:03;;;;;;;13.55;4.05;;;24.80;75.30;;;;;;5074042;28;20259;-56
2023/05/24 11:25:29;;;;;;;10.70;4.28;;;24.80;1.00;;;;;;5073935;28;20165;-55
2023/05/24 11:27:58;;;;;;;13.35;3.83;;;25.10;99.90;;;;;;5073963;28;20647;-55
2023/05/24 11:30:25;;;;;;;10.45;3.85;;;25.20;99.90;;;;;;5073921;28;20180;-55
2023/05/24 11:32:51;;;;;;;9.65;3.97;;;25.00;1.00;;;;;;5079225;28;20187;-55
2023/05/24 11:35:18;;;;;;;14.05;4.47;;;24.90;95.60;;;;;;5094025;28;20176;-55
2023/05/24 11:37:44;;;;;;;8.98;3.65;;;26.00;1.00;;;;;;5093842;28;20167;-56
2023/05/24 11:40:10;;;;;;;12.82;4.30;;;26.10;1.00;;;;;;5058473;28;20211;-56
2023/05/24 11:42:38;;;;;;;16.90;4.45;;;25.90;1.00;;;;;;5073267;28;20212;-56
2023/05/24 11:45:07;;;;;;;11.18;4.15;;;26.30;1.00;;;;;;5055783;28;20181;-56
2023/05/24 11:47:37;;;;;;;16.35;4.22;;;26.40;99.90;;;;;;5073490;28;20629;-56
2023/05/24 11:50:04;;;;;;;15.57;4.43;;;26.50;1.00;;;;;;5073538;28;20243;-56
2023/05/24 11:52:30;;;;;;;12.38;4.15;;;26.70;1.00;;;;;;5091765;28;20202;-56
2023/05/24 11:54:55;;;;;;;12.80;4.20;;;27.10;10.70;;;;;;5093726;28;20237;-56
2023/05/24 11:57:46;;;;;;;10.35;3.60;;;27.60;99.90;;;;;;5093627;28;20172;-56
2023/05/24 12:00:16;;;;;;;9.23;3.80;;;27.20;99.90;;;;;;5093234;28;20746;-56
2023/05/24 12:02:42;;;;;;;16.02;4.38;;;;;;;;;;5093532;28;20186;-56
2023/05/24 12:05:10;;;;;;;7.68;3.90;;;27.10;1.00;;;;;;5075178;28;20190;-56
2023/05/24 12:07:36;;;;;;;9.57;3.97;;;27.00;1.00;;;;;;5093501;28;20160;-56
2023/05/24 12:10:06;;;;;;;12.70;4.32;;;27.40;99.90;;;;;;5075074;28;20278;-56
2023/05/24 12:12:33;;;;;;;11.88;4.00;;;26.80;1.00;;;;;;5093188;28;20172;-56
2023/05/24 12:14:58;;;;;;;9.18;3.90;;;26.90;35.60;;;;;;5092992;28;20178;-57
2023/05/24 12:17:24;;;;;;;13.15;4.38;;;26.20;99.90;;;;;;5093083;28;20511;-57
2023/05/24 12:19:53;;;;;;;7.93;3.95;;;26.50;1.00;;;;;;5092896;28;20222;-54
2023/05/24 12:22:25;;;;;;;13.38;4.38;;;27.30;99.90;;;;;;5092897;28;20164;-55
2023/05/24 12:24:51;;;;;;;10.60;3.83;;;27.30;1.00;;;;;;5092970;28;20171;-56
2023/05/24 12:27:17;;;;;;;13.65;3.97;;;27.50;1.00;;;;;;5088341;28;20550;-55
2023/05/24 12:29:42;;;;;;;13.98;4.30;;;27.70;45.50;;;;;;5072860;28;20263;-56
2023/05/24 12:32:13;;;;;;;9.75;4.03;;;28.10;99.90;;;;;;5072699;28;20168;-56
2023/05/24 12:34:42;;;;;;;8.88;4.30;;;27.70;1.00;;;;;;5072500;28;20177;-56
2023/05/24 12:37:09;;;;;;;10.82;4.75;;;27.10;99.90;;;;;;5072680;28;20196;-56
2023/05/24 12:39:36;;;;;;;11.57;4.10;;;27.50;99.90;;;;;;5072589;28;20254;-56
2023/05/24 12:42:03;;;;;;;9.15;4.38;;;27.00;99.90;;;;;;5072510;28;21064;-56
2023/05/24 12:44:28;;;;;;;11.80;4.28;;;26.60;48.10;;;;;;5072758;28;20234;-56